createdAt,value
2018-11-06T00:00:50.166Z,48.63
2018-11-06T00:04:28.451Z,42.00
2018-11-06T00:07:04.760Z,41.30
2018-11-06T00:09:39.170Z,40.10
2018-11-06T00:12:14.242Z,38.40
2018-11-06T00:14:50.268Z,41.87
2018-11-06T00:17:24.299Z,38.40
2018-11-06T00:20:00.773Z,39.47
2018-11-06T00:22:35.056Z,40.47
2018-11-06T00:25:10.756Z,35.27
2018-11-06T00:27:47.312Z,41.67
2018-11-06T00:30:23.009Z,34.03
2018-11-06T00:32:59.008Z,34.10
2018-11-06T00:35:37.140Z,40.27
2018-11-06T00:38:15.451Z,34.13
2018-11-06T00:40:49.634Z,40.63
2018-11-06T00:43:24.737Z,33.23
2018-11-06T00:46:00.029Z,36.40
2018-11-06T00:48:35.914Z,36.30
2018-11-06T00:51:11.379Z,34.47
2018-11-06T00:53:43.315Z,36.60
2018-11-06T00:56:17.812Z,33.67
2018-11-06T00:58:52.941Z,38.03
2018-11-06T01:01:28.205Z,32.73
2018-11-06T01:04:08.117Z,31.20
2018-11-06T01:06:46.167Z,36.47
2018-11-06T01:09:20.363Z,35.97
2018-11-06T01:11:56.755Z,35.43
2018-11-06T01:14:32.845Z,37.03
2018-11-06T01:17:07.271Z,33.67
2018-11-06T01:19:41.367Z,30.63
2018-11-06T01:22:18.191Z,29.80
2018-11-06T01:24:52.420Z,32.00
2018-11-06T01:27:27.817Z,30.57
2018-11-06T01:30:01.844Z,31.67
2018-11-06T01:32:37.950Z,31.23
2018-11-06T01:35:11.040Z,29.80
2018-11-06T01:37:45.824Z,29.37
2018-11-06T01:40:20.721Z,32.60
2018-11-06T01:42:58.821Z,30.87
2018-11-06T01:45:37.064Z,29.83
2018-11-06T01:48:13.182Z,31.37
2018-11-06T01:50:48.378Z,32.43
2018-11-06T01:53:22.538Z,30.13
2018-11-06T01:55:56.580Z,32.27
2018-11-06T01:58:31.928Z,29.17
2018-11-06T02:01:03.556Z,32.97
2018-11-06T02:03:40.218Z,31.10
2018-11-06T02:06:14.486Z,32.90
2018-11-06T02:08:48.592Z,30.77
2018-11-06T02:11:23.835Z,33.47
2018-11-06T02:13:57.992Z,34.03
2018-11-06T02:16:32.286Z,32.90
2018-11-06T02:19:07.761Z,33.57
2018-11-06T02:21:41.973Z,33.43
2018-11-06T02:24:16.357Z,38.50
2018-11-06T02:26:48.489Z,31.07
2018-11-06T02:29:22.883Z,32.30
2018-11-06T02:31:58.964Z,34.50
2018-11-06T02:34:34.344Z,36.67
2018-11-06T02:37:09.077Z,36.40
2018-11-06T02:39:43.343Z,34.93
2018-11-06T02:42:18.180Z,33.23
2018-11-06T02:44:52.269Z,36.37
2018-11-06T02:47:27.323Z,32.60
2018-11-06T02:50:02.421Z,31.77
2018-11-06T02:52:36.597Z,31.17
2018-11-06T02:55:11.033Z,31.60
2018-11-06T02:57:47.097Z,33.27
2018-11-06T03:00:23.327Z,32.80
2018-11-06T03:02:55.387Z,32.37
2018-11-06T03:05:34.094Z,30.80
2018-11-06T03:08:09.997Z,30.40
2018-11-06T03:10:46.444Z,29.10
2018-11-06T03:13:28.136Z,28.20
2018-11-06T03:16:09.072Z,28.23
2018-11-06T03:18:47.850Z,29.33
2018-11-06T03:21:22.162Z,25.43
2018-11-06T03:23:56.456Z,30.30
2018-11-06T03:26:37.114Z,28.53
2018-11-06T03:29:15.572Z,28.30
2018-11-06T03:31:49.740Z,27.90
2018-11-06T03:34:25.040Z,27.63
2018-11-06T03:36:59.448Z,29.33
2018-11-06T03:39:33.632Z,26.67
2018-11-06T03:42:08.139Z,25.93
2018-11-06T03:44:44.318Z,26.20
2018-11-06T03:47:18.754Z,26.17
2018-11-06T03:49:52.950Z,27.03
2018-11-06T03:52:31.242Z,26.90
2018-11-06T03:55:06.610Z,25.17
2018-11-06T03:57:44.751Z,24.63
2018-11-06T04:00:23.138Z,31.60
2018-11-06T04:03:01.369Z,26.80
2018-11-06T04:05:36.634Z,24.77
2018-11-06T04:08:11.145Z,28.03
2018-11-06T04:10:51.977Z,27.47
2018-11-06T04:13:26.797Z,24.50
2018-11-06T04:16:01.205Z,26.50
2018-11-06T04:18:35.285Z,27.87
2018-11-06T04:21:09.643Z,27.77
2018-11-06T04:23:43.889Z,24.20
2018-11-06T04:26:18.186Z,26.30
2018-11-06T04:28:58.464Z,24.70
2018-11-06T04:31:28.036Z,24.80
2018-11-06T04:34:03.690Z,25.77
2018-11-06T04:36:44.410Z,26.93
2018-11-06T04:39:21.200Z,24.23
2018-11-06T04:41:55.812Z,25.97
2018-11-06T04:44:30.360Z,23.43
2018-11-06T04:47:06.406Z,25.03
2018-11-06T04:49:42.686Z,27.60
2018-11-06T04:52:18.200Z,24.37
2018-11-06T04:54:54.539Z,25.57
2018-11-06T04:57:29.771Z,24.43
2018-11-06T05:00:06.308Z,23.77
2018-11-06T05:02:43.641Z,23.80
2018-11-06T05:05:18.118Z,24.23
2018-11-06T05:07:52.347Z,24.93
2018-11-06T05:10:27.507Z,25.47
2018-11-06T05:13:03.897Z,25.17
2018-11-06T05:15:42.103Z,23.53
2018-11-06T05:18:17.345Z,26.53
2018-11-06T05:20:57.866Z,23.17
2018-11-06T05:23:32.474Z,25.70
2018-11-06T05:26:06.671Z,29.17
2018-11-06T05:28:41.563Z,25.07
2018-11-06T05:31:13.377Z,27.30
2018-11-06T05:33:48.028Z,25.37
2018-11-06T05:36:22.397Z,24.73
2018-11-06T05:39:00.626Z,26.30
2018-11-06T05:41:38.915Z,29.60
2018-11-06T05:44:14.034Z,25.60
2018-11-06T05:46:52.179Z,27.77
2018-11-06T05:49:26.294Z,25.67
2018-11-06T05:52:00.705Z,22.60
2018-11-06T05:54:35.777Z,27.23
2018-11-06T05:57:11.856Z,27.17
2018-11-06T05:59:48.231Z,26.17
2018-11-06T06:02:24.379Z,30.17
2018-11-06T06:04:58.442Z,28.27
2018-11-06T06:07:33.854Z,29.53
2018-11-06T06:10:09.921Z,26.93
2018-11-06T06:12:44.248Z,28.73
2018-11-06T06:15:18.420Z,29.50
2018-11-06T06:17:55.533Z,32.43
2018-11-06T06:20:27.756Z,32.98
2018-11-06T06:23:03.018Z,32.23
2018-11-06T06:25:31.621Z,31.43
2018-11-06T06:28:06.296Z,39.67
2018-11-06T06:30:42.868Z,33.40
2018-11-06T06:33:17.698Z,30.47
2018-11-06T06:39:00.125Z,30.67
2018-11-06T06:41:34.811Z,30.03
2018-11-06T06:44:09.069Z,29.63
2018-11-06T06:46:43.357Z,31.30
2018-11-06T06:49:17.360Z,28.80
2018-11-06T06:51:58.214Z,28.83
2018-11-06T06:54:34.137Z,36.50
2018-11-06T06:57:09.290Z,29.40
2018-11-06T06:59:47.712Z,28.40
2018-11-06T07:02:22.884Z,29.97
2018-11-06T07:05:03.761Z,31.90
2018-11-06T07:07:43.583Z,30.63
2018-11-06T07:10:19.315Z,33.40
2018-11-06T07:12:55.905Z,32.60
2018-11-06T07:15:30.109Z,30.93
2018-11-06T07:18:04.379Z,29.07
2018-11-06T07:20:39.653Z,28.10
2018-11-06T07:23:14.779Z,27.13
2018-11-06T07:25:50.899Z,29.43
2018-11-06T07:28:24.989Z,26.57
2018-11-06T07:30:59.143Z,30.00
2018-11-06T07:33:33.297Z,30.90
2018-11-06T07:36:08.090Z,25.47
2018-11-06T07:38:42.771Z,24.40
2018-11-06T07:41:17.277Z,22.17
2018-11-06T07:47:21.472Z,30.47
2018-11-06T07:49:57.269Z,26.20
2018-11-06T07:52:33.575Z,26.80
2018-11-06T07:55:11.251Z,23.90
2018-11-06T07:57:47.013Z,25.77
2018-11-06T08:00:24.485Z,28.00
2018-11-06T08:02:59.296Z,25.50
2018-11-06T08:05:35.598Z,28.33
2018-11-06T08:08:09.752Z,27.00
2018-11-06T08:10:44.944Z,28.00
2018-11-06T08:13:19.896Z,27.00
2018-11-06T08:15:55.464Z,26.30
2018-11-06T08:18:30.102Z,28.93
2018-11-06T08:21:05.910Z,30.37
2018-11-06T08:23:40.450Z,26.53
2018-11-06T08:26:15.222Z,25.53
2018-11-06T08:28:51.209Z,24.33
2018-11-06T08:31:27.232Z,23.63
2018-11-06T08:34:01.762Z,24.37
2018-11-06T08:36:40.031Z,25.40
2018-11-06T08:39:14.920Z,26.17
2018-11-06T08:41:50.797Z,23.60
2018-11-06T08:44:25.663Z,24.87
2018-11-06T08:46:57.589Z,27.30
2018-11-06T08:49:32.091Z,25.40
2018-11-06T08:52:07.723Z,28.20
2018-11-06T08:54:53.415Z,29.47
2018-11-06T09:00:10.243Z,22.73
2018-11-06T09:02:47.082Z,24.23
2018-11-06T09:05:22.289Z,23.53
2018-11-06T09:07:58.484Z,23.53
2018-11-06T09:10:36.738Z,21.87
2018-11-06T09:13:11.264Z,22.67
2018-11-06T09:15:45.997Z,19.53
2018-11-06T09:18:18.342Z,19.90
2018-11-06T09:20:57.769Z,19.30
2018-11-06T09:23:35.792Z,19.70
2018-11-06T09:26:12.576Z,19.07
2018-11-06T09:28:47.685Z,20.77
2018-11-06T09:31:22.140Z,22.40
2018-11-06T09:33:57.853Z,22.83
2018-11-06T09:36:32.059Z,22.20
2018-11-06T09:39:08.010Z,24.13
2018-11-06T09:41:42.734Z,21.90
2018-11-06T09:44:17.194Z,22.73
2018-11-06T09:46:49.314Z,19.43
2018-11-06T09:49:23.304Z,25.93
2018-11-06T09:51:57.785Z,24.03
2018-11-06T09:54:32.384Z,25.17
2018-11-06T09:57:04.586Z,25.33
2018-11-06T09:59:39.530Z,24.07
2018-11-06T10:02:15.929Z,21.30
2018-11-06T10:04:52.286Z,23.17
2018-11-06T10:07:27.037Z,25.57
2018-11-06T10:10:09.385Z,28.50
2018-11-06T10:12:46.928Z,27.60
2018-11-06T10:15:23.274Z,28.53
2018-11-06T10:17:57.812Z,23.47
2018-11-06T10:20:36.272Z,27.97
2018-11-06T10:23:11.098Z,24.10
2018-11-06T10:25:45.583Z,23.00
2018-11-06T10:28:20.031Z,25.40
2018-11-06T10:30:54.269Z,24.83
2018-11-06T10:33:30.465Z,24.63
2018-11-06T10:36:05.135Z,26.43
2018-11-06T10:38:41.497Z,23.67
2018-11-06T10:41:15.842Z,24.23
2018-11-06T10:43:56.803Z,25.10
2018-11-06T10:46:34.833Z,29.50
2018-11-06T10:49:10.011Z,24.43
2018-11-06T10:51:44.509Z,26.10
2018-11-06T10:54:25.257Z,24.57
2018-11-06T10:56:59.167Z,26.60
2018-11-06T10:59:33.607Z,22.97
2018-11-06T11:02:14.545Z,22.20
2018-11-06T11:04:48.918Z,24.43
2018-11-06T11:07:23.548Z,23.53
2018-11-06T11:09:57.826Z,22.57
2018-11-06T11:12:32.224Z,23.47
2018-11-06T11:15:04.512Z,20.93
2018-11-06T11:17:39.747Z,18.03
2018-11-06T11:20:15.759Z,17.77
2018-11-06T11:22:50.366Z,12.37
2018-11-06T11:25:25.621Z,15.33
2018-11-06T11:28:00.141Z,12.67
2018-11-06T11:30:34.780Z,13.50
2018-11-06T11:33:08.736Z,13.20
2018-11-06T11:35:43.089Z,12.30
2018-11-06T11:38:19.463Z,12.30
2018-11-06T11:40:53.702Z,13.87
2018-11-06T11:43:32.188Z,10.63
2018-11-06T11:46:06.307Z,8.33
2018-11-06T11:48:38.438Z,8.83
2018-11-06T11:51:12.949Z,11.17
2018-11-06T11:53:48.150Z,9.70
2018-11-06T11:56:20.156Z,8.60
2018-11-06T11:58:55.115Z,8.20
2018-11-06T12:01:29.651Z,6.80
2018-11-06T12:04:08.361Z,8.93
2018-11-06T12:06:44.085Z,7.43
2018-11-06T12:09:20.026Z,9.30
2018-11-06T12:11:54.476Z,6.40
2018-11-06T12:14:28.883Z,7.63
2018-11-06T12:17:05.010Z,7.03
2018-11-06T12:19:39.562Z,8.57
2018-11-06T12:22:14.123Z,5.63
2018-11-06T12:24:48.779Z,6.40
2018-11-06T12:27:23.295Z,6.97
2018-11-06T12:29:57.633Z,6.90
2018-11-06T12:32:32.127Z,4.87
2018-11-06T12:35:15.002Z,10.27
2018-11-06T12:37:49.561Z,8.07
2018-11-06T12:40:23.867Z,7.17
2018-11-06T12:43:04.505Z,6.80
2018-11-06T12:45:39.427Z,7.13
2018-11-06T12:48:15.508Z,8.70
2018-11-06T12:50:51.129Z,7.63
2018-11-06T12:53:25.482Z,7.63
2018-11-06T12:55:59.957Z,6.70
2018-11-06T12:58:34.584Z,9.40
2018-11-06T13:01:08.976Z,8.67
2018-11-06T13:03:43.670Z,6.60
2018-11-06T13:06:24.016Z,7.83
2018-11-06T13:08:58.105Z,9.23
2018-11-06T13:11:34.496Z,8.33
2018-11-06T13:14:15.396Z,6.27
2018-11-06T13:16:50.235Z,5.53
2018-11-06T13:19:24.488Z,9.73
2018-11-06T13:22:05.377Z,5.80
2018-11-06T13:24:39.368Z,7.47
2018-11-06T13:27:17.572Z,9.37
2018-11-06T13:29:54.075Z,8.07
2018-11-06T13:32:28.262Z,6.27
2018-11-06T13:35:04.049Z,8.37
2018-11-06T13:37:38.355Z,8.20
2018-11-06T13:40:15.856Z,5.37
2018-11-06T13:42:52.713Z,7.83
2018-11-06T13:45:30.916Z,7.43
2018-11-06T13:48:05.371Z,6.87
2018-11-06T13:50:39.883Z,9.17
2018-11-06T13:53:13.987Z,6.87
2018-11-06T13:55:52.491Z,10.53
2018-11-06T13:58:28.248Z,10.03
2018-11-06T14:01:06.619Z,9.30
2018-11-06T14:03:41.707Z,8.77
2018-11-06T14:06:16.107Z,8.30
2018-11-06T14:08:50.505Z,8.53
2018-11-06T14:11:28.949Z,7.10
2018-11-06T14:14:04.469Z,7.27
2018-11-06T14:16:39.835Z,11.40
2018-11-06T14:19:16.166Z,8.70
2018-11-06T14:21:50.669Z,7.80
2018-11-06T14:24:24.847Z,7.30
2018-11-06T14:27:01.461Z,9.20
2018-11-06T14:29:35.693Z,9.70
2018-11-06T14:32:10.487Z,7.07
2018-11-06T14:34:45.284Z,7.60
2018-11-06T14:37:19.978Z,6.67
2018-11-06T14:39:54.366Z,8.50
2018-11-06T14:42:28.701Z,10.00
2018-11-06T14:45:05.262Z,7.67
2018-11-06T14:47:40.477Z,8.50
2018-11-06T14:50:14.466Z,8.93
2018-11-06T14:52:48.932Z,7.90
2018-11-06T14:55:23.162Z,7.73
2018-11-06T14:57:57.488Z,9.43
2018-11-06T15:00:32.983Z,7.27
2018-11-06T15:03:07.460Z,5.70
2018-11-06T15:05:49.900Z,9.30
2018-11-06T15:08:24.541Z,7.77
2018-11-06T15:10:58.767Z,7.20
2018-11-06T15:13:33.216Z,8.20
2018-11-06T15:16:09.618Z,5.87
2018-11-06T15:18:47.717Z,13.47
2018-11-06T15:21:22.521Z,6.63
2018-11-06T15:23:57.648Z,9.43
2018-11-06T15:26:32.919Z,7.30
2018-11-06T15:29:11.574Z,11.37
2018-11-06T15:31:48.844Z,7.50
2018-11-06T15:34:23.919Z,9.50
2018-11-06T15:36:58.047Z,8.60
2018-11-06T15:39:32.722Z,6.70
2018-11-06T15:42:11.217Z,7.50
2018-11-06T15:44:53.880Z,7.00
2018-11-06T15:47:48.829Z,9.50
2018-11-06T15:50:23.209Z,9.00
2018-11-06T15:52:58.377Z,9.10
2018-11-06T15:55:32.651Z,8.53
2018-11-06T15:58:07.199Z,8.67
2018-11-06T16:00:43.923Z,8.80
2018-11-06T16:03:22.270Z,7.97
2018-11-06T16:06:01.924Z,11.07
2018-11-06T16:11:33.860Z,12.70
2018-11-06T16:14:08.618Z,10.67
2018-11-06T16:16:45.205Z,8.50
2018-11-06T16:19:23.172Z,10.30
2018-11-06T16:22:01.592Z,13.63
2018-11-06T16:27:13.770Z,10.83
2018-11-06T16:29:48.941Z,10.63
2018-11-06T16:32:23.316Z,9.37
2018-11-06T16:34:58.238Z,10.27
2018-11-06T16:37:33.316Z,14.20
2018-11-06T16:40:16.276Z,13.90
2018-11-06T16:42:54.816Z,13.70
2018-11-06T16:45:32.838Z,10.30
2018-11-06T16:48:07.996Z,13.13
2018-11-06T16:50:44.152Z,10.97
2018-11-06T16:53:22.531Z,14.20
2018-11-06T16:55:57.724Z,11.33
2018-11-06T16:58:34.143Z,16.33
2018-11-06T17:01:08.285Z,12.93
2018-11-06T17:03:48.219Z,11.97
2018-11-06T17:06:36.536Z,11.83
2018-11-06T17:09:10.921Z,14.57
2018-11-06T17:11:47.182Z,15.10
2018-11-06T17:14:21.439Z,16.83
2018-11-06T17:16:59.505Z,15.33
2018-11-06T17:19:35.103Z,13.03
2018-11-06T17:22:10.989Z,12.87
2018-11-06T17:24:45.226Z,14.43
2018-11-06T17:27:21.220Z,18.83
2018-11-06T17:30:01.729Z,17.47
2018-11-06T17:32:46.395Z,17.47
2018-11-06T17:35:21.587Z,19.37
2018-11-06T17:38:02.503Z,19.47
2018-11-06T17:40:41.528Z,17.70
2018-11-06T17:43:16.461Z,20.70
2018-11-06T17:45:50.892Z,27.53
2018-11-06T17:48:26.171Z,22.10
2018-11-06T17:51:00.379Z,24.40
2018-11-06T17:53:35.308Z,29.83
2018-11-06T17:56:13.454Z,23.97
2018-11-06T17:58:48.554Z,20.40
2018-11-06T18:01:24.561Z,19.80
2018-11-06T18:04:00.003Z,21.47
2018-11-06T18:06:38.846Z,23.83
2018-11-06T18:09:19.846Z,20.03
2018-11-06T18:11:58.611Z,22.57
2018-11-06T18:14:35.708Z,23.40
2018-11-06T18:17:12.223Z,19.63
2018-11-06T18:22:41.572Z,27.33
2018-11-06T18:25:17.998Z,20.67
2018-11-06T18:33:54.461Z,23.93
2018-11-06T18:36:40.094Z,22.47
2018-11-06T18:39:19.763Z,21.20
2018-11-06T18:41:56.893Z,22.60
2018-11-06T18:44:32.964Z,20.90
2018-11-06T19:29:57.734Z,19.80
2018-11-06T19:32:32.498Z,17.30
2018-11-06T19:35:15.992Z,20.70
2018-11-06T21:01:33.384Z,18.50
2018-11-06T21:13:35.151Z,17.20
2018-11-06T21:16:09.666Z,17.53
2018-11-06T21:18:48.247Z,14.93
2018-11-06T21:21:22.693Z,16.80
2018-11-06T21:23:56.884Z,16.17
2018-11-06T21:26:31.179Z,17.97
2018-11-06T21:32:04.873Z,16.60
2018-11-06T21:34:45.217Z,15.67
2018-11-06T21:37:21.305Z,18.50
2018-11-06T21:40:00.123Z,15.03
2018-11-06T21:42:41.111Z,16.87
2018-11-06T21:45:22.031Z,17.40
2018-11-06T21:48:00.827Z,16.03
2018-11-06T21:50:40.007Z,18.20
2018-11-06T21:53:09.555Z,14.63
2018-11-06T22:02:24.269Z,15.83
2018-11-06T22:39:08.430Z,13.43
2018-11-06T22:41:41.758Z,14.87
2018-11-06T22:44:18.312Z,16.20
2018-11-06T22:46:47.002Z,14.60
2018-11-06T22:49:25.133Z,11.90
2018-11-06T22:52:03.752Z,12.77
2018-11-06T22:54:32.303Z,11.67
2018-11-06T22:57:01.821Z,16.47
2018-11-06T22:59:32.607Z,13.67
2018-11-06T23:02:01.159Z,15.23
2018-11-06T23:04:35.963Z,14.33
2018-11-06T23:07:14.238Z,14.40
2018-11-06T23:09:46.423Z,13.43
2018-11-06T23:12:22.069Z,14.33
2018-11-06T23:14:56.286Z,13.47
2018-11-06T23:17:32.731Z,14.83
2018-11-06T23:20:06.753Z,15.17
2018-11-06T23:22:48.861Z,15.70
2018-11-06T23:25:17.451Z,13.53
2018-11-06T23:27:46.073Z,13.50
2018-11-06T23:30:15.393Z,13.93
2018-11-06T23:32:56.152Z,12.43
2018-11-06T23:35:34.057Z,14.90
2018-11-06T23:38:08.211Z,15.87
2018-11-06T23:40:42.336Z,11.03
2018-11-06T23:43:17.474Z,10.77
2018-11-06T23:45:54.285Z,14.17
2018-11-06T23:48:28.739Z,10.80
2018-11-06T23:51:02.916Z,14.70
2018-11-06T23:53:37.640Z,11.17
2018-11-06T23:56:11.705Z,16.43
2018-11-06T23:58:48.225Z,12.17
